createdAt,value
2018-10-01T00:01:38.156Z,18.80
2018-10-01T00:04:07.394Z,13.07
2018-10-01T00:06:38.217Z,15.57
2018-10-01T00:09:09.591Z,18.40
2018-10-01T00:11:40.680Z,12.83
2018-10-01T00:14:09.897Z,19.30
2018-10-01T00:16:38.985Z,22.40
2018-10-01T00:19:13.439Z,13.60
2018-10-01T00:21:47.664Z,14.80
2018-10-01T00:24:23.532Z,13.60
2018-10-01T00:26:52.651Z,16.20
2018-10-01T00:29:25.413Z,15.30
2018-10-01T00:31:54.533Z,23.80
2018-10-01T00:34:25.693Z,15.00
2018-10-01T00:36:54.917Z,16.20
2018-10-01T00:39:23.973Z,16.03
2018-10-01T00:41:55.372Z,12.03
2018-10-01T00:44:31.409Z,11.40
2018-10-01T00:47:00.510Z,12.55
2018-10-01T00:49:29.686Z,13.77
2018-10-01T00:51:58.798Z,13.77
2018-10-01T00:54:27.928Z,14.33
2018-10-01T00:56:57.083Z,13.22
2018-10-01T00:59:26.250Z,15.90
2018-10-01T01:01:57.945Z,13.00
2018-10-01T01:04:27.175Z,12.00
2018-10-01T01:06:58.980Z,13.33
2018-10-01T01:09:28.303Z,12.20
2018-10-01T01:12:01.574Z,14.13
2018-10-01T01:14:33.797Z,12.97
2018-10-01T01:17:02.928Z,13.88
2018-10-01T01:19:32.003Z,17.37
2018-10-01T01:22:01.121Z,15.23
2018-10-01T01:24:30.271Z,14.87
2018-10-01T01:27:01.922Z,13.43
2018-10-01T01:29:32.914Z,13.33
2018-10-01T01:32:04.630Z,16.02
2018-10-01T01:34:35.575Z,17.20
2018-10-01T01:37:04.726Z,13.30
2018-10-01T01:39:35.533Z,12.80
2018-10-01T01:42:04.654Z,15.00
2018-10-01T01:44:33.751Z,13.87
2018-10-01T01:47:02.902Z,15.28
2018-10-01T01:49:32.094Z,11.73
2018-10-01T01:52:01.166Z,14.05
2018-10-01T01:54:30.235Z,17.03
2018-10-01T01:56:59.366Z,20.00
2018-10-01T01:59:28.515Z,14.27
2018-10-01T02:01:57.630Z,13.83
2018-10-01T02:04:29.043Z,16.60
2018-10-01T02:06:58.151Z,18.02
2018-10-01T02:09:30.619Z,17.40
2018-10-01T02:11:59.721Z,16.00
2018-10-01T02:14:28.793Z,17.47
2018-10-01T02:16:57.969Z,19.37
2018-10-01T02:19:27.085Z,17.63
2018-10-01T02:21:56.296Z,15.70
2018-10-01T02:24:27.486Z,18.60
2018-10-01T02:26:58.180Z,17.45
2018-10-01T02:29:27.338Z,18.00
2018-10-01T02:31:56.445Z,19.30
2018-10-01T02:34:25.670Z,16.07
2018-10-01T02:36:56.412Z,17.82
2018-10-01T02:39:25.562Z,21.55
2018-10-01T02:41:54.725Z,26.23
2018-10-01T02:44:23.830Z,24.40
2018-10-01T02:46:52.906Z,19.17
2018-10-01T02:49:25.219Z,22.37
2018-10-01T02:51:59.517Z,22.52
2018-10-01T02:54:29.963Z,22.60
2018-10-01T02:56:59.269Z,20.60
2018-10-01T02:59:29.351Z,23.47
2018-10-01T03:02:01.596Z,23.03
2018-10-01T03:04:31.465Z,24.23
2018-10-01T03:07:03.633Z,21.52
2018-10-01T03:09:33.303Z,22.62
2018-10-01T03:12:04.962Z,23.20
2018-10-01T03:14:34.776Z,23.40
2018-10-01T03:17:04.949Z,24.63
2018-10-01T03:19:34.950Z,25.70
2018-10-01T03:22:04.715Z,23.27
2018-10-01T03:24:36.455Z,22.13
2018-10-01T03:27:06.680Z,25.27
2018-10-01T03:29:39.116Z,21.13
2018-10-01T03:32:09.087Z,27.93
2018-10-01T03:34:38.982Z,26.37
2018-10-01T03:37:08.846Z,26.67
2018-10-01T03:39:38.832Z,24.60
2018-10-01T03:42:09.190Z,23.83
2018-10-01T03:44:39.216Z,23.97
2018-10-01T03:47:09.901Z,24.30
2018-10-01T03:49:40.106Z,22.13
2018-10-01T03:52:09.795Z,24.63
2018-10-01T03:54:39.970Z,21.87
2018-10-01T03:57:10.653Z,26.90
2018-10-01T03:59:40.949Z,27.87
2018-10-01T04:02:11.252Z,23.47
2018-10-01T04:04:41.081Z,26.23
2018-10-01T04:07:11.293Z,22.23
2018-10-01T04:09:41.239Z,23.90
2018-10-01T04:12:11.320Z,23.67
2018-10-01T04:14:41.418Z,24.60
2018-10-01T04:17:11.388Z,26.50
2018-10-01T04:19:41.457Z,26.93
2018-10-01T04:22:11.244Z,24.43
2018-10-01T04:24:41.247Z,22.43
2018-10-01T04:27:11.146Z,26.53
2018-10-01T04:29:41.459Z,25.97
2018-10-01T04:32:11.347Z,23.13
2018-10-01T04:34:41.304Z,23.13
2018-10-01T04:37:11.181Z,26.00
2018-10-01T04:39:41.078Z,22.83
2018-10-01T04:42:10.923Z,22.70
2018-10-01T04:44:40.917Z,28.05
2018-10-01T04:47:10.713Z,23.27
2018-10-01T04:49:40.939Z,24.33
2018-10-01T04:52:10.788Z,28.23
2018-10-01T04:54:40.716Z,27.27
2018-10-01T04:57:10.773Z,28.33
2018-10-01T04:59:40.714Z,26.90
2018-10-01T05:02:10.659Z,26.03
2018-10-01T05:04:40.682Z,26.77
2018-10-01T05:07:10.704Z,30.80
2018-10-01T05:09:40.891Z,25.83
2018-10-01T05:12:25.577Z,26.87
2018-10-01T05:14:55.565Z,29.45
2018-10-01T05:17:25.740Z,24.00
2018-10-01T05:19:55.738Z,30.50
2018-10-01T05:22:25.708Z,31.80
2018-10-01T05:24:55.466Z,27.27
2018-10-01T05:27:25.483Z,28.13
2018-10-01T05:29:55.376Z,30.02
2018-10-01T05:32:25.276Z,26.80
2018-10-01T05:34:55.134Z,25.37
2018-10-01T05:37:24.992Z,27.80
2018-10-01T05:39:55.044Z,27.00
2018-10-01T05:42:24.644Z,25.05
2018-10-01T05:44:54.667Z,26.15
2018-10-01T05:47:24.600Z,24.67
2018-10-01T05:49:57.436Z,25.77
2018-10-01T05:52:27.420Z,33.10
2018-10-01T05:54:57.277Z,28.50
2018-10-01T05:57:27.039Z,31.95
2018-10-01T05:59:56.963Z,24.37
2018-10-01T06:02:26.825Z,25.90
2018-10-01T06:04:57.032Z,23.57
2018-10-01T06:07:26.851Z,25.73
2018-10-01T06:09:56.712Z,23.38
2018-10-01T06:12:57.514Z,26.60
2018-10-01T06:15:27.296Z,24.23
2018-10-01T06:17:57.011Z,23.10
2018-10-01T06:20:26.952Z,24.80
2018-10-01T06:22:56.922Z,26.73
2018-10-01T06:25:26.863Z,26.57
2018-10-01T06:27:56.780Z,27.27
2018-10-01T06:30:26.782Z,22.80
2018-10-01T06:32:56.453Z,26.60
2018-10-01T06:35:26.463Z,22.50
2018-10-01T06:37:56.637Z,21.90
2018-10-01T06:40:26.649Z,30.00
2018-10-01T06:42:56.644Z,24.80
2018-10-01T06:45:26.460Z,21.17
2018-10-01T06:47:58.967Z,27.77
2018-10-01T06:50:28.649Z,26.93
2018-10-01T06:52:58.718Z,19.67
2018-10-01T06:55:28.824Z,22.87
2018-10-01T06:57:58.956Z,26.07
2018-10-01T07:00:28.884Z,21.52
2018-10-01T07:02:58.833Z,24.83
2018-10-01T07:05:28.886Z,21.45
2018-10-01T07:07:58.648Z,20.77
2018-10-01T07:10:28.473Z,23.60
2018-10-01T07:12:58.364Z,29.85
2018-10-01T07:15:30.782Z,21.65
2018-10-01T07:18:00.620Z,22.62
2018-10-01T07:20:30.642Z,22.20
2018-10-01T07:23:00.809Z,18.35
2018-10-01T07:25:30.824Z,24.82
2018-10-01T07:28:00.996Z,21.07
2018-10-01T07:30:30.816Z,20.07
2018-10-01T07:33:00.731Z,22.73
2018-10-01T07:35:30.835Z,18.85
2018-10-01T07:38:00.913Z,24.82
2018-10-01T07:40:33.101Z,17.93
2018-10-01T07:43:03.731Z,18.98
2018-10-01T07:45:33.660Z,20.17
2018-10-01T07:48:03.544Z,21.63
2018-10-01T07:50:33.279Z,23.67
2018-10-01T07:53:03.019Z,19.92
2018-10-01T07:55:32.843Z,22.27
2018-10-01T07:58:02.354Z,21.90
2018-10-01T08:00:32.198Z,24.77
2018-10-01T08:03:01.742Z,23.18
2018-10-01T08:05:31.460Z,21.55
2018-10-01T08:08:01.178Z,21.77
2018-10-01T08:10:30.770Z,20.63
2018-10-01T08:13:00.646Z,22.30
2018-10-01T08:15:30.292Z,22.52
2018-10-01T08:17:59.886Z,22.17
2018-10-01T08:20:31.772Z,20.60
2018-10-01T08:23:01.441Z,23.40
2018-10-01T08:25:31.205Z,20.00
2018-10-01T08:28:00.884Z,18.47
2018-10-01T08:30:30.487Z,22.77
2018-10-01T08:33:00.087Z,21.93
2018-10-01T08:35:29.967Z,21.23
2018-10-01T08:37:59.541Z,24.63
2018-10-01T08:40:29.222Z,21.10
2018-10-01T08:42:58.867Z,23.73
2018-10-01T08:45:28.536Z,26.65
2018-10-01T08:47:58.297Z,25.40
2018-10-01T08:50:31.901Z,21.48
2018-10-01T08:53:22.130Z,20.50
2018-10-01T08:55:52.513Z,21.73
2018-10-01T08:58:22.271Z,25.10
2018-10-01T09:00:52.487Z,16.55
2018-10-01T09:03:22.230Z,21.20
2018-10-01T09:05:52.679Z,17.27
2018-10-01T09:08:22.391Z,18.17
2018-10-01T09:10:52.891Z,17.52
2018-10-01T09:13:22.504Z,17.67
2018-10-01T09:15:53.178Z,20.08
2018-10-01T09:18:22.853Z,28.30
2018-10-01T09:20:53.201Z,21.53
2018-10-01T09:23:22.836Z,17.80
2018-10-01T09:25:53.048Z,22.10
2018-10-01T09:28:22.773Z,20.73
2018-10-01T09:30:53.046Z,18.42
2018-10-01T09:33:22.603Z,26.33
2018-10-01T09:35:53.092Z,19.37
2018-10-01T09:38:22.780Z,17.63
2018-10-01T09:40:53.223Z,15.72
2018-10-01T09:43:22.886Z,15.40
2018-10-01T09:45:53.125Z,12.47
2018-10-01T09:48:25.078Z,16.13
2018-10-01T09:50:54.837Z,11.43
2018-10-01T09:53:24.451Z,13.50
2018-10-01T09:55:54.039Z,13.90
2018-10-01T09:58:23.767Z,13.30
2018-10-01T10:00:58.825Z,13.00
2018-10-01T10:03:28.422Z,10.70
2018-10-01T10:05:58.156Z,14.20
2018-10-01T10:08:27.842Z,11.60
2018-10-01T10:10:57.384Z,12.50
2018-10-01T10:13:27.084Z,10.00
2018-10-01T10:15:56.692Z,12.40
2018-10-01T10:18:26.338Z,13.93
2018-10-01T10:20:56.338Z,15.57
2018-10-01T10:23:26.052Z,15.80
2018-10-01T10:25:57.390Z,12.13
2018-10-01T10:28:27.036Z,17.33
2018-10-01T10:30:56.728Z,10.30
2018-10-01T10:33:26.489Z,9.03
2018-10-01T10:35:59.870Z,11.20
2018-10-01T10:38:29.850Z,17.00
2018-10-01T10:40:59.362Z,13.60
2018-10-01T10:43:29.041Z,14.47
2018-10-01T10:45:58.658Z,16.10
2018-10-01T10:48:28.334Z,10.23
2018-10-01T10:51:00.107Z,11.23
2018-10-01T10:53:29.810Z,12.45
2018-10-01T10:56:01.516Z,13.05
2018-10-01T10:58:31.131Z,12.30
2018-10-01T11:01:03.176Z,12.07
2018-10-01T11:03:32.958Z,13.68
2018-10-01T11:06:02.655Z,11.85
2018-10-01T11:08:34.510Z,12.70
2018-10-01T11:11:04.770Z,16.17
2018-10-01T11:16:06.364Z,12.97
2018-10-01T11:18:37.872Z,14.65
2018-10-01T11:21:07.605Z,16.13
2018-10-01T11:23:36.694Z,16.42
2018-10-01T11:26:07.952Z,13.13
2018-10-01T11:28:38.817Z,17.15
2018-10-01T11:31:07.962Z,14.37
2018-10-01T11:33:41.163Z,13.03
2018-10-01T11:36:10.212Z,11.07
2018-10-01T11:38:39.329Z,11.30
2018-10-01T11:41:08.714Z,13.35
2018-10-01T11:43:37.978Z,12.88
2018-10-01T11:46:07.091Z,13.50
2018-10-01T11:48:36.203Z,13.32
2018-10-01T11:51:05.399Z,11.60
2018-10-01T11:53:34.511Z,11.00
2018-10-01T11:56:03.720Z,14.33
2018-10-01T11:58:32.913Z,10.80
2018-10-01T12:01:02.308Z,14.37
2018-10-01T12:03:31.533Z,14.33
2018-10-01T12:06:00.594Z,18.10
2018-10-01T12:08:29.747Z,9.70
2018-10-01T12:10:58.905Z,15.38
2018-10-01T12:13:28.051Z,9.68
2018-10-01T12:15:57.399Z,10.07
2018-10-01T12:18:26.315Z,12.50
2018-10-01T12:20:55.470Z,13.90
2018-10-01T12:23:24.631Z,10.60
2018-10-01T12:25:54.337Z,13.63
2018-10-01T12:28:23.856Z,14.83
2018-10-01T12:35:46.692Z,23.80
2018-10-01T12:38:15.925Z,13.13
2018-10-01T12:40:45.476Z,11.90
2018-10-01T12:43:14.711Z,15.20
2018-10-01T12:45:43.963Z,11.00
2018-10-01T12:48:13.002Z,13.27
2018-10-01T12:50:42.211Z,12.70
2018-10-01T12:53:11.352Z,11.60
2018-10-01T12:55:40.459Z,10.43
2018-10-01T12:58:09.573Z,13.30
2018-10-01T13:00:38.792Z,16.02
2018-10-01T13:03:08.042Z,12.60
2018-10-01T13:05:37.324Z,12.07
2018-10-01T13:08:06.452Z,11.75
2018-10-01T13:10:35.717Z,9.88
2018-10-01T13:13:04.928Z,14.83
2018-10-01T13:15:34.036Z,10.65
2018-10-01T13:18:03.216Z,9.65
2018-10-01T13:20:32.374Z,15.80
2018-10-01T13:23:01.549Z,13.27
2018-10-01T13:25:30.683Z,10.78
2018-10-01T13:27:59.890Z,14.50
2018-10-01T13:30:29.074Z,11.30
2018-10-01T13:32:58.217Z,17.23
2018-10-01T13:35:27.413Z,18.23
2018-10-01T13:37:56.708Z,15.33
2018-10-01T13:40:25.853Z,18.37
2018-10-01T13:42:54.979Z,13.53
2018-10-01T13:45:24.505Z,13.10
2018-10-01T13:47:54.746Z,17.35
2018-10-01T13:50:24.631Z,30.92
2018-10-01T13:52:54.670Z,16.95
2018-10-01T13:55:24.577Z,17.23
2018-10-01T13:57:54.703Z,16.25
2018-10-01T14:00:24.692Z,18.97
2018-10-01T14:02:55.081Z,23.20
2018-10-01T14:05:24.723Z,24.53
2018-10-01T14:07:56.937Z,15.80
2018-10-01T14:10:26.049Z,15.37
2018-10-01T14:12:55.281Z,25.47
2018-10-01T14:15:24.777Z,18.50
2018-10-01T14:18:00.076Z,17.73
2018-10-01T14:20:29.249Z,16.47
2018-10-01T14:22:58.287Z,16.40
2018-10-01T14:25:27.604Z,15.07
2018-10-01T14:27:56.648Z,18.50
2018-10-01T14:30:25.846Z,18.93
2018-10-01T14:32:55.344Z,18.53
2018-10-01T14:35:25.327Z,16.60
2018-10-01T14:37:55.110Z,16.37
2018-10-01T14:40:25.160Z,16.00
2018-10-01T14:42:55.123Z,20.92
2018-10-01T14:45:25.135Z,14.83
2018-10-01T14:47:55.164Z,13.50
2018-10-01T14:50:25.266Z,14.30
2018-10-01T14:52:55.204Z,13.65
2018-10-01T14:55:25.273Z,17.07
2018-10-01T14:57:55.276Z,11.93
2018-10-01T15:00:25.471Z,9.67
2018-10-01T15:02:55.292Z,14.27
2018-10-01T15:05:26.240Z,12.63
2018-10-01T15:07:55.486Z,12.80
2018-10-01T15:10:25.632Z,17.65
2018-10-01T15:12:55.422Z,13.67
2018-10-01T15:15:25.744Z,10.15
2018-10-01T15:17:55.911Z,11.67
2018-10-01T15:20:25.992Z,15.23
2018-10-01T15:22:56.416Z,9.75
2018-10-01T15:25:26.129Z,11.50
2018-10-01T15:27:56.118Z,12.20
2018-10-01T15:30:26.264Z,11.22
2018-10-01T15:32:56.088Z,9.07
2018-10-01T15:35:26.373Z,14.35
2018-10-01T15:37:56.291Z,13.23
2018-10-01T15:40:28.265Z,8.30
2018-10-01T15:42:58.176Z,6.97
2018-10-01T15:45:27.906Z,7.97
2018-10-01T15:47:57.625Z,12.43
2018-10-01T15:50:27.444Z,8.63
2018-10-01T15:52:57.159Z,8.63
2018-10-01T15:55:26.776Z,8.10
2018-10-01T15:57:56.409Z,10.13
2018-10-01T16:00:26.547Z,10.20
2018-10-01T16:02:56.881Z,9.05
2018-10-01T16:05:26.463Z,11.60
2018-10-01T16:07:56.821Z,7.20
2018-10-01T16:10:26.554Z,6.07
2018-10-01T16:12:56.896Z,8.23
2018-10-01T16:15:28.466Z,13.20
2018-10-01T16:17:57.982Z,8.20
2018-10-01T16:20:27.508Z,6.80
2018-10-01T16:22:57.150Z,5.53
2018-10-01T16:25:26.797Z,6.07
2018-10-01T16:27:59.146Z,8.10
2018-10-01T16:30:28.840Z,10.50
2018-10-01T16:32:58.476Z,7.07
2018-10-01T16:35:28.202Z,5.77
2018-10-01T16:37:57.928Z,7.97
2018-10-01T16:40:27.523Z,10.13
2018-10-01T16:42:57.164Z,9.13
2018-10-01T16:45:26.957Z,10.17
2018-10-01T16:47:57.306Z,10.55
2018-10-01T16:50:27.140Z,13.77
2018-10-01T16:52:57.131Z,7.97
2018-10-01T16:55:27.029Z,10.67
2018-10-01T16:57:57.387Z,11.60
2018-10-01T17:00:27.172Z,6.87
2018-10-01T17:02:57.634Z,7.50
2018-10-01T17:05:28.177Z,10.25
2018-10-01T17:07:59.502Z,9.80
2018-10-01T17:10:29.211Z,9.30
2018-10-01T17:12:59.227Z,7.43
2018-10-01T17:15:28.935Z,5.47
2018-10-01T17:17:58.674Z,10.00
2018-10-01T17:20:30.180Z,4.87
2018-10-01T17:23:01.545Z,7.77
2018-10-01T17:25:31.258Z,5.50
2018-10-01T17:28:02.862Z,6.50
2018-10-01T17:30:32.636Z,7.40
2018-10-01T17:33:02.411Z,11.45
2018-10-01T17:35:32.176Z,7.42
2018-10-01T17:38:01.895Z,6.70
2018-10-01T17:40:31.784Z,10.13
2018-10-01T17:43:01.557Z,3.95
2018-10-01T17:45:32.994Z,9.47
2018-10-01T17:48:02.784Z,5.75
2018-10-01T17:50:32.597Z,6.83
2018-10-01T17:53:02.550Z,5.83
2018-10-01T17:55:32.292Z,9.45
2018-10-01T17:58:03.687Z,6.40
2018-10-01T18:00:37.798Z,9.23
2018-10-01T18:03:09.707Z,7.80
2018-10-01T18:05:39.576Z,9.10
2018-10-01T18:08:09.423Z,5.62
2018-10-01T18:10:40.834Z,8.03
2018-10-01T18:13:17.960Z,10.03
2018-10-01T18:15:47.808Z,5.00
2018-10-01T18:18:17.813Z,10.77
2018-10-01T18:20:47.905Z,4.63
2018-10-01T18:23:17.901Z,6.40
2018-10-01T18:25:48.329Z,8.33
2018-10-01T18:28:18.173Z,8.57
2018-10-01T18:30:53.608Z,9.30
2018-10-01T18:33:24.135Z,6.17
2018-10-01T18:35:56.952Z,6.90
2018-10-01T18:38:28.834Z,5.93
2018-10-01T18:41:00.323Z,10.20
2018-10-01T18:43:31.964Z,4.23
2018-10-01T18:46:02.153Z,10.70
2018-10-01T18:48:36.028Z,9.87
2018-10-01T18:51:09.719Z,5.63
2018-10-01T18:56:12.785Z,11.40
2018-10-01T18:58:42.257Z,7.93
2018-10-01T19:01:14.083Z,14.57
2018-10-01T19:03:45.774Z,6.72
2018-10-01T19:06:20.323Z,6.30
2018-10-01T19:08:49.821Z,8.87
2018-10-01T19:11:19.676Z,5.87
2018-10-01T19:13:49.190Z,5.37
2018-10-01T19:16:20.380Z,8.03
2018-10-01T19:18:52.640Z,8.73
2018-10-01T19:21:22.634Z,6.70
2018-10-01T19:23:55.078Z,8.20
2018-10-01T19:26:24.998Z,7.20
2018-10-01T19:28:57.505Z,10.47
2018-10-01T19:44:26.423Z,7.40
2018-10-01T19:46:56.383Z,7.80
2018-10-01T19:49:28.731Z,4.00
2018-10-01T19:52:01.570Z,3.85
2018-10-01T19:54:32.873Z,3.83
2018-10-01T19:57:05.930Z,6.63
2018-10-01T19:59:40.722Z,8.08
2018-10-01T20:02:10.227Z,5.90
2018-10-01T20:04:41.919Z,6.87
2018-10-01T20:07:16.134Z,5.20
2018-10-01T20:09:48.552Z,6.37
2018-10-01T20:12:23.623Z,8.00
2018-10-01T20:14:55.349Z,7.93
2018-10-01T20:17:29.867Z,10.13
2018-10-01T20:19:59.404Z,16.73
2018-10-01T20:22:34.554Z,11.83
2018-10-01T20:25:03.996Z,10.65
2018-10-01T20:27:33.421Z,13.20
2018-10-01T20:30:02.864Z,13.10
2018-10-01T20:32:33.773Z,12.03
2018-10-01T20:35:05.815Z,19.03
2018-10-01T20:37:37.283Z,11.63
2018-10-01T20:40:11.339Z,11.80
2018-10-01T20:42:41.385Z,9.40
2018-10-01T20:45:14.842Z,14.97
2018-10-01T20:47:53.073Z,11.40
2018-10-01T20:50:23.075Z,17.03
2018-10-01T20:52:55.894Z,11.43
2018-10-01T20:55:25.775Z,10.70
2018-10-01T20:57:57.705Z,12.70
2018-10-01T21:00:29.270Z,10.60
2018-10-01T21:03:02.125Z,14.50
2018-10-01T21:05:33.858Z,11.73
2018-10-01T21:08:05.415Z,10.27
2018-10-01T21:10:35.222Z,14.75
2018-10-01T21:13:05.315Z,11.50
2018-10-01T21:15:35.042Z,7.20
2018-10-01T21:18:04.935Z,9.78
2018-10-01T21:20:34.799Z,10.17
2018-10-01T21:23:06.757Z,7.93
2018-10-01T21:25:36.773Z,12.33
2018-10-01T21:28:08.497Z,6.17
2018-10-01T21:30:40.757Z,5.92
2018-10-01T21:33:12.266Z,7.63
2018-10-01T21:35:44.032Z,7.80
2018-10-01T21:38:15.365Z,7.92
2018-10-01T21:40:45.224Z,10.38
2018-10-01T21:43:14.925Z,5.15
2018-10-01T21:45:44.166Z,8.63
2018-10-01T21:48:13.268Z,11.38
2018-10-01T21:50:42.315Z,6.27
2018-10-01T21:53:11.385Z,8.98
2018-10-01T21:58:15.229Z,9.60
2018-10-01T22:00:49.566Z,8.58
2018-10-01T22:03:20.503Z,5.50
2018-10-01T22:05:51.567Z,8.10
2018-10-01T22:08:22.747Z,7.07
2018-10-01T22:10:54.230Z,6.60
2018-10-01T22:13:23.316Z,7.93
2018-10-01T22:15:52.772Z,5.53
2018-10-01T22:18:24.193Z,7.37
2018-10-01T22:21:01.197Z,5.90
2018-10-01T22:24:01.225Z,5.60
2018-10-01T22:26:30.325Z,4.50
2018-10-01T22:29:01.898Z,11.70
2018-10-01T22:31:30.975Z,4.83
2018-10-01T22:34:00.219Z,8.93
2018-10-01T22:36:31.625Z,6.43
2018-10-01T22:39:00.729Z,5.53
2018-10-01T22:41:29.978Z,4.77
2018-10-01T22:44:01.969Z,7.10
2018-10-01T22:46:31.120Z,6.87
2018-10-01T23:02:03.523Z,5.30
2018-10-01T23:04:37.106Z,5.03
2018-10-01T23:07:09.949Z,7.57
2018-10-01T23:09:45.160Z,7.07
2018-10-01T23:12:18.135Z,6.40
2018-10-01T23:14:49.081Z,5.77
2018-10-01T23:17:18.244Z,8.20
2018-10-01T23:19:49.764Z,8.73
2018-10-01T23:22:24.453Z,7.80
2018-10-01T23:24:53.842Z,4.60
2018-10-01T23:27:22.925Z,5.43
2018-10-01T23:29:54.293Z,5.10
2018-10-01T23:32:27.639Z,4.67
2018-10-01T23:34:58.903Z,5.53
2018-10-01T23:37:32.314Z,4.80
2018-10-01T23:40:03.371Z,3.77
2018-10-01T23:42:32.465Z,8.50
2018-10-01T23:45:01.664Z,3.60
2018-10-01T23:47:30.817Z,4.30
2018-10-01T23:50:02.834Z,3.98
2018-10-01T23:52:34.710Z,3.77
2018-10-01T23:55:03.821Z,4.00
2018-10-01T23:57:34.521Z,7.40
